TimeEDT,TemperatureF,Dew PointF,Humidity,Sea Level PressureIn,VisibilityMPH,Wind Direction,Wind SpeedMPH,Gust SpeedMPH,PrecipitationIn,Events,Conditions,WindDirDegrees,DateUTC
12:52 AM,64.0,61.0,90,30.00,10.0,South,9.2,-,0.00,,Overcast,190,2013-10-31 04:52:00
1:52 AM,64.0,59.0,84,29.99,10.0,SSW,6.9,-,N/A,,Overcast,200,2013-10-31 05:52:00
2:52 AM,64.9,57.0,75,29.96,10.0,SSW,11.5,-,N/A,,Overcast,200,2013-10-31 06:52:00
3:52 AM,64.9,55.9,73,29.93,10.0,South,9.2,-,0.00,,Overcast,190,2013-10-31 07:52:00
4:52 AM,64.0,55.9,75,29.92,10.0,SSW,9.2,-,N/A,,Overcast,200,2013-10-31 08:52:00
5:52 AM,64.0,55.9,75,29.91,10.0,SSW,11.5,-,N/A,,Overcast,200,2013-10-31 09:52:00
6:52 AM,64.0,55.9,75,29.90,10.0,SSW,13.8,-,N/A,,Overcast,200,2013-10-31 10:52:00
7:52 AM,64.0,55.9,75,29.88,10.0,South,11.5,-,0.00,Rain,Light Rain,190,2013-10-31 11:52:00
8:52 AM,63.0,55.9,78,29.85,10.0,South,10.4,-,0.00,,Overcast,180,2013-10-31 12:52:00
9:52 AM,63.0,55.9,78,29.83,10.0,South,12.7,20.7,0.00,Rain,Light Rain,190,2013-10-31 13:52:00
10:52 AM,62.1,57.9,86,29.83,6.0,South,11.5,-,0.01,Rain,Light Rain,190,2013-10-31 14:52:00
11:52 AM,62.1,57.9,86,29.79,10.0,South,17.3,-,0.01,,Overcast,170,2013-10-31 15:52:00
12:52 PM,62.1,57.9,86,29.77,6.0,South,15.0,26.5,0.00,Rain,Light Rain,190,2013-10-31 16:52:00
1:46 PM,60.8,57.2,88,29.73,2.5,South,21.9,28.8,0.06,Rain,Rain,180,2013-10-31 17:46:00
1:52 PM,60.1,57.9,93,29.69,2.0,South,20.7,28.8,0.07,Rain,Rain,170,2013-10-31 17:52:00
2:07 PM,60.8,57.2,88,29.69,7.0,South,19.6,23.0,0.01,Rain,Light Rain,170,2013-10-31 18:07:00
2:52 PM,62.1,57.0,84,29.63,10.0,South,18.4,-,0.01,Rain,Light Rain,180,2013-10-31 18:52:00
3:15 PM,62.6,57.2,82,29.64,6.0,South,19.6,33.4,0.00,Rain,Light Rain,190,2013-10-31 19:15:00
3:52 PM,63.0,59.0,87,29.60,6.0,South,25.3,33.4,0.02,Rain,Light Rain,180,2013-10-31 19:52:00
4:52 PM,62.1,61.0,96,29.55,4.0,South,20.7,28.8,0.08,Rain,Light Rain,170,2013-10-31 20:52:00
5:52 PM,64.0,61.0,90,29.53,10.0,South,17.3,33.4,0.02,Rain,Light Rain,190,2013-10-31 21:52:00
6:38 PM,64.4,62.6,94,29.51,1.5,South,17.3,28.8,0.04,Rain,Light Rain,190,2013-10-31 22:38:00
6:52 PM,64.0,63.0,96,29.48,1.5,South,16.1,29.9,0.10,Rain,Rain,180,2013-10-31 22:52:00
7:03 PM,64.4,62.6,94,29.49,5.0,South,21.9,29.9,0.03,Rain,Light Rain,180,2013-10-31 23:03:00
7:52 PM,64.0,63.0,96,29.44,5.0,South,20.7,31.1,0.06,Rain,Light Rain,180,2013-10-31 23:52:00
8:37 PM,64.4,62.6,94,29.44,4.0,South,23.0,34.5,0.03,Rain,Light Rain,190,2013-11-01 00:37:00
8:52 PM,64.9,63.0,93,29.42,4.0,South,23.0,34.5,0.05,Rain,Light Rain,190,2013-11-01 00:52:00
9:11 PM,64.4,64.4,100,29.44,2.5,WSW,11.5,27.6,0.06,Rain,Heavy Rain,240,2013-11-01 01:11:00
9:21 PM,64.4,64.4,100,29.43,3.0,SSW,17.3,27.6,0.22,Rain,Rain,210,2013-11-01 01:21:00
9:52 PM,64.9,64.0,97,29.39,9.0,SSW,19.6,27.6,0.30,,Overcast,210,2013-11-01 01:52:00
10:52 PM,64.9,64.0,97,29.38,4.0,SSW,16.1,28.8,0.11,Rain,Light Rain,200,2013-11-01 02:52:00
11:33 PM,66.2,64.4,94,29.39,10.0,SW,13.8,27.6,0.06,Rain,Light Rain,220,2013-11-01 03:33:00
11:39 PM,64.4,62.6,94,29.44,6.0,West,36.8,50.6,0.06,Rain,Light Rain,280,2013-11-01 03:39:00
11:49 PM,59.0,55.4,88,29.46,3.0,West,25.3,36.8,0.09,Rain,Rain,280,2013-11-01 03:49:00
11:52 PM,59.0,55.9,90,29.44,4.0,WNW,27.6,35.7,0.09,Rain,Rain,290,2013-11-01 03:52:00
11:59 PM,57.2,55.4,94,29.46,5.0,West,23.0,35.7,0.01,Rain,Light Rain,280,2013-11-01 03:59:00